Latest Coastal Weather Observations for Devonport Airport

IDT60701

Issued at 2:22 pm EDT Sunday 26 March 2017 (issued every 10 minutes, with the page automatically refreshed every 10 minutes)

About coastal observations | Map of coastal stations | Coastal observations for TAS | Marine services | Other Formats
Station Details ID: 091126 Name: DEVONPORT AIRPORT Lat: -41.17 Lon: 146.43 Height: 8.0 m
Data from the previous 72 hours. | See also: Recent months at Devonport Airport
Date/Time
EDT
Temp
°C
Wind Pressure Rain since
9am
mm
Weather Cloud Vis
km
Sea
Height
m
Swell
Dir  Spd
kts
Gust
kts
hPa Trend Height
m
Period
s
Dir
26/02:00pm 20.1 NNW 8 10 1014.6 - 0.2 - - 10 - - - -
26/01:30pm 20.1 NNW 9 10 1015.0 - 0.2 - - 10 - - - -
26/01:00pm 20.4 NNW 9 10 1015.3 - 0.2 - - 10 - - - -
26/12:30pm 20.1 N 9 10 1015.4 - 0.2 - - 10 - - - -
26/12:00pm 20.0 N 8 9 1015.6 - 0.2 Recent precip. - 10 - - - -
26/11:30am 20.0 N 8 10 1015.9 - 0.0 - - 10 - - - -
26/11:00am 21.1 S 4 6 1015.8 - 0.0 - - 10 - - - -
26/10:30am 19.5 SSE 7 9 1015.6 - 0.0 - - 10 - - - -
26/10:00am 18.7 SSE 7 9 1015.7 - 0.0 - - 10 - - - -
26/09:30am 17.6 S 10 12 1015.3 - 0.0 - - 10 - - - -
26/09:00am 16.2 SSE 8 11 1015.2 - 1.0 - - 10 - - - -
26/08:30am 14.7 S 9 11 1015.2 - 1.0 - - 10 - - - -
26/08:00am 13.7 SE 5 7 1015.2 - 1.0 - - 10 - - - -
26/07:30am 13.2 SSE 6 9 1014.8 - 1.0 - - 10 - - - -
26/07:00am 12.7 SSE 8 11 1014.3 - 1.0 - - 10 - - - -
26/06:30am 12.7 S 8 11 1013.9 - 1.0 - - 10 - - - -
26/06:00am 12.7 S 7 9 1013.5 - 1.0 - - 10 - - - -
26/05:30am 12.4 S 5 7 1013.6 - 1.0 - - 10 - - - -
26/05:00am 12.9 SSW 4 7 1013.4 - 1.0 - - 10 - - - -
26/04:30am 12.3 SSW 4 5 1013.5 - 1.0 - - 10 - - - -
26/04:00am 13.3 SSE 4 5 1013.4 - 1.0 - - 10 - - - -
26/03:30am 13.7 SSE 3 6 1013.8 - 1.0 - - 10 - - - -
26/03:00am 13.5 S 6 7 1013.9 - 1.0 - - 10 - - - -
26/02:30am 13.7 SSW 5 6 1013.7 - 1.0 - - 10 - - - -
26/02:00am 13.8 SSW 4 6 1013.4 - 1.0 - - 10 - - - -
26/01:30am 14.1 S 6 7 1013.7 - 1.0 - - 10 - - - -
26/01:00am 14.5 SSE 8 10 1013.9 - 1.0 - - 10 - - - -
26/12:30am 14.4 SSE 8 9 1013.8 - 1.0 - - 10 - - - -
26/12:00am 14.7 SSE 7 9 1014.0 - 1.0 - - 10 - - - -
 
Date/Time
EDT
Temp
°C
Wind Pressure Rain since
9am
mm
Weather Cloud Vis
km
Sea
Height
m
Swell
Dir  Spd
kts
Gust
kts
hPa Trend Height
m
Period
s
Dir
25/11:30pm 14.8 SSE 7 9 1014.0 - 1.0 - - 10 - - - -
25/11:22pm 15.2 SSE 7 9 1014.1 - 1.0 - Partly cloudy 10 - - - -
25/11:00pm 15.6 SSE 7 9 1014.0 - 1.0 - Cloudy 10 - - - -
25/10:30pm 15.7 S 7 9 1013.8 - 1.0 - Cloudy 10 - - - -
25/10:00pm 15.8 SSE 7 9 1013.8 - 1.0 - Cloudy 10 - - - -
25/09:42pm 15.4 SSE 6 7 1013.8 - 1.0 - Partly cloudy 10 - - - -
25/09:30pm 15.3 SSE 7 8 1013.7 - 1.0 - Partly cloudy 10 - - - -
25/09:00pm 15.6 S 7 9 1013.5 - 1.0 - Mostly clear 10 - - - -
25/08:30pm 16.3 SSE 7 8 1013.1 - 1.0 - Partly cloudy 10 - - - -
25/08:00pm 16.6 SSE 9 11 1012.9 - 1.0 - Partly cloudy 10 - - - -
25/07:30pm 16.7 SSE 9 11 1012.7 - 1.0 - Partly cloudy 10 - - - -
25/07:00pm 16.7 SSE 8 11 1012.4 - 1.0 - Partly cloudy 10 - - - -
25/06:30pm 16.9 SSE 10 12 1012.3 - 1.0 - Cloudy 10 - - - -
25/06:00pm 16.9 S 9 11 1012.2 - 1.0 - Cloudy 10 - - - -
25/05:30pm 16.8 SSE 9 11 1012.2 - 1.0 - Cloudy 10 - - - -
25/05:00pm 16.8 SSE 9 11 1012.2 - 1.0 - Partly cloudy 10 - - - -
25/04:34pm 16.7 S 8 11 1012.3 - 1.0 - Partly cloudy 10 - - - -
25/04:30pm 16.8 S 8 11 1012.3 - 1.0 - Partly cloudy 10 - - - -
25/04:00pm 16.3 S 9 11 1012.4 - 1.0 - Partly cloudy 10 - - - -
25/03:30pm 16.3 S 8 10 1012.6 - 1.0 - Cloudy 10 - - - -
25/03:00pm 16.4 S 10 12 1012.4 - 1.0 - Cloudy 10 - - - -
25/02:31pm 15.9 SSE 10 13 1012.7 - 1.0 - Partly cloudy 10 - - - -
25/02:30pm 15.9 SSE 10 13 1012.7 - 1.0 - Cloudy 10 - - - -
25/02:00pm 16.0 SSE 8 9 1013.3 - 1.0 - Partly cloudy 10 - - - -
25/01:53pm 15.8 SSE 7 9 1013.4 - 1.0 - Partly cloudy 10 - - - -
25/01:38pm 15.7 SSE 6 7 1013.8 - 0.8 - Partly cloudy 6 - - - -
25/01:30pm 15.5 SSE 6 8 1013.8 - 0.8 - Partly cloudy 8 - - - -
25/01:00pm 15.7 S 8 10 1014.1 - 0.0 - Cloudy 10 - - - -
25/12:30pm 16.7 S 9 11 1014.0 - 0.0 - Cloudy 10 - - - -
25/12:00pm 16.9 SSE 10 13 1014.2 - 0.0 Rain Cloudy 10 - - - -
25/11:30am 16.4 SSE 9 12 1014.9 - 0.0 - Cloudy 10 - - - -
25/11:00am 16.0 SSE 10 12 1015.2 - 0.0 - Cloudy 10 - - - -
25/10:30am 15.2 S 9 12 1015.2 - 0.0 - Cloudy 10 - - - -
25/10:00am 14.9 SSE 8 11 1015.3 - 0.0 - Cloudy 10 - - - -
25/09:30am 14.6 SSE 9 13 1015.3 - 0.0 - Cloudy 10 - - - -
25/09:00am 14.3 SSE 10 11 1015.4 - 0.0 Drizzle Cloudy 10 - - - -
25/08:30am 14.1 SSE 8 11 1015.5 - 0.0 - Cloudy 10 - - - -
25/08:00am 13.8 SSE 8 10 1015.8 - 0.0 - Cloudy 10 - - - -
25/07:30am 13.9 SSE 8 10 1015.7 - 0.0 - Cloudy 10 - - - -
25/07:00am 13.8 SSE 7 9 1015.8 - 0.0 - Cloudy 10 - - - -
25/06:30am 13.7 S 6 8 1016.1 - 0.0 - Cloudy 10 - - - -
25/06:00am 13.3 SSE 7 9 1016.0 - 0.0 - Mostly cloudy 9 - - - -
25/05:30am 13.3 S 8 10 1016.3 - 0.0 - Cloudy 10 - - - -
25/05:00am 13.3 SSE 7 8 1016.5 - 0.0 - Partly cloudy 10 - - - -
25/04:30am 14.1 S 7 9 1016.8 - 0.0 - Cloudy 10 - - - -
25/04:00am 14.8 SSE 6 7 1017.0 - 0.0 - Partly cloudy 10 - - - -
25/03:30am 14.0 SSE 8 10 1016.9 - 0.0 - Cloudy 10 - - - -
25/03:00am 14.1 S 7 9 1017.8 - 0.0 - Mostly cloudy 10 - - - -
25/02:30am 14.4 SE 7 8 1018.1 - 0.0 - Partly cloudy 10 - - - -
25/02:00am 14.3 SE 6 8 1018.5 - 0.0 - Partly cloudy 10 - - - -
25/01:30am 14.1 SE 8 10 1018.7 - 0.0 - - 10 - - - -
25/01:00am 14.3 ESE 6 8 1019.3 - 0.0 - - 10 - - - -
25/12:30am 14.1 SE 7 8 1019.4 - 0.0 - - 10 - - - -
25/12:00am 14.0 ESE 5 7 1019.9 - 0.0 - Cloudy 10 - - - -
 
Date/Time
EDT
Temp
°C
Wind Pressure Rain since
9am
mm
Weather Cloud Vis
km
Sea
Height
m
Swell
Dir  Spd
kts
Gust
kts
hPa Trend Height
m
Period
s
Dir
24/11:30pm 14.5 ESE 6 7 1020.2 - 0.0 - - 10 - - - -
24/11:00pm 14.7 E 8 11 1020.0 - 0.0 - - 10 - - - -
24/10:30pm 14.7 E 10 12 1020.1 - 0.0 - - 10 - - - -
24/10:00pm 14.9 E 10 13 1020.4 - 0.0 - Partly cloudy 10 - - - -
24/09:30pm 16.1 E 9 12 1020.8 - 0.0 - Partly cloudy 10 - - - -
24/09:00pm 16.7 NE 11 16 1021.2 - 0.0 - Cloudy 10 - - - -
24/08:30pm 17.0 NE 13 17 1020.6 - 0.0 - Partly cloudy 10 - - - -
24/08:00pm 16.7 ENE 11 15 1020.1 - 0.0 - Partly cloudy 10 - - - -
24/07:30pm 17.1 NE 12 15 1020.3 - 0.0 - Partly cloudy 10 - - - -
24/07:00pm 17.3 NE 12 14 1020.5 - 0.0 - - 10 - - - -
24/06:30pm 17.5 NE 11 14 1020.7 - 0.0 - - 10 - - - -
24/06:00pm 17.7 NNE 10 13 1020.9 - 0.0 - Mostly cloudy 10 - - - -
24/05:30pm 18.0 NE 11 13 1020.4 - 0.0 - - 10 - - - -
24/05:00pm 18.2 NNE 12 16 1020.3 - 0.0 - - 10 - - - -
24/04:30pm 18.4 NNE 12 14 1020.8 - 0.0 - - 10 - - - -
24/04:00pm 18.5 NNE 11 14 1020.8 - 0.0 - - 10 - - - -
24/03:30pm 18.7 NNE 12 15 1021.2 - 0.0 - - 10 - - - -
24/03:00pm 19.1 NNE 11 14 1022.0 - 0.0 - Mostly cloudy 10 - - - -
24/02:30pm 18.8 NNE 11 13 1022.7 - 0.0 - Partly cloudy 10 - - - -
24/02:00pm 18.2 NNE 12 14 1022.8 - 0.0 - Partly cloudy 10 - - - -
24/01:30pm 18.8 NNE 9 13 1023.3 - 0.0 - Partly cloudy 10 - - - -
24/01:00pm 18.5 NNE 8 11 1023.4 - 0.0 - Partly cloudy 10 - - - -
24/12:30pm 17.6 NNE 11 13 1023.7 - 0.0 - Partly cloudy 10 - - - -
24/12:00pm 17.7 NNE 8 10 1024.1 - 0.0 - Cloudy 10 - - - -
24/11:30am 17.5 NNE 7 8 1024.5 - 0.0 - Partly cloudy 10 - - - -
24/11:00am 18.1 E 5 8 1024.7 - 0.0 - Partly cloudy 10 - - - -
24/10:30am 17.6 SSE 7 10 1025.0 - 0.0 - Partly cloudy 10 - - - -
24/10:00am 16.8 SE 9 12 1024.9 - 0.0 - Partly cloudy 10 - - - -
24/09:30am 15.0 S 10 12 1024.8 - 0.0 - - 10 - - - -
24/09:00am 13.9 S 9 13 1024.7 - 0.0 - - 10 - - - -
24/08:30am 12.8 SSE 9 12 1024.3 - 0.0 - - 10 - - - -
24/08:00am 11.3 SSE 9 12 1024.1 - 0.0 - - 10 - - - -
24/07:30am 10.8 SSE 9 12 1023.9 - 0.0 - - 10 - - - -
24/07:00am 10.7 SSE 11 12 1023.9 - 0.0 - - 10 - - - -
24/06:30am 11.5 SSE 10 12 1023.7 - 0.0 - - 10 - - - -
24/06:00am 11.5 SSE 9 11 1023.5 - 0.0 - Mostly clear 10 - - - -
24/05:30am 12.2 SSE 9 10 1023.6 - 0.0 - Partly cloudy 10 - - - -
24/05:00am 13.1 SE 8 10 1023.7 - 0.0 - Partly cloudy 10 - - - -
24/04:30am 13.9 SE 9 11 1023.9 - 0.0 - Partly cloudy 10 - - - -
24/04:00am 14.2 SE 10 12 1024.1 - 0.0 - Partly cloudy 10 - - - -
24/03:30am 13.9 S 7 9 1024.2 - 0.0 - Partly cloudy 10 - - - -
24/03:00am 14.3 S 5 6 1024.2 - 0.0 - Cloudy 10 - - - -
24/02:30am 15.2 NNE 3 6 1024.0 - 0.0 - Cloudy 10 - - - -
24/02:00am 15.4 SSE 9 11 1023.9 - 0.0 - Cloudy 10 - - - -
24/01:30am 15.7 SSE 7 9 1024.1 - 0.0 - Cloudy 10 - - - -
24/01:00am 15.9 SSE 7 9 1024.1 - 0.0 - Cloudy 10 - - - -
24/12:30am 16.2 SE 7 8 1024.2 - 0.0 - Cloudy 10 - - - -
24/12:00am 15.9 SSE 6 7 1024.5 - 0.0 - Cloudy 10 - - - -
 
Date/Time
EDT
Temp
°C
Wind Pressure Rain since
9am
mm
Weather Cloud Vis
km
Sea
Height
m
Swell
Dir  Spd
kts
Gust
kts
hPa Trend Height
m
Period
s
Dir
23/11:30pm 15.8 SSE 5 6 1024.9 - 0.0 - Cloudy 10 - - - -
23/11:00pm 15.5 S 4 5 1025.3 - 0.0 - Cloudy 10 - - - -
23/10:30pm 15.3 ENE 3 4 1025.5 - 0.0 - Partly cloudy 10 - - - -
23/10:00pm 15.9 N 3 5 1025.3 - 0.0 - Partly cloudy 10 - - - -
23/09:30pm 17.1 N 5 5 1025.0 - 0.0 - Partly cloudy 10 - - - -
23/09:00pm 17.8 NW 5 7 1024.8 - 0.0 - Cloudy 10 - - - -
23/08:30pm 17.7 WNW 7 8 1024.6 - 0.0 - Cloudy 10 - - - -
23/08:00pm 17.7 WNW 6 9 1024.0 - 0.0 - Cloudy 10 - - - -
23/07:30pm 17.0 NW 6 7 1023.7 - 0.0 - Partly cloudy 10 - - - -
23/07:00pm 17.6 NW 7 8 1023.6 - 0.0 - - 10 - - - -
23/06:30pm 18.3 WNW 9 12 1023.5 - 0.0 - - 10 - - - -
23/06:00pm 18.7 WNW 10 13 1023.4 - 0.0 - - 10 - - - -
23/05:30pm 19.0 WNW 10 11 1023.2 - 0.0 - Partly cloudy 10 - - - -
23/05:00pm 19.3 NW 9 11 1023.3 - 0.0 - Partly cloudy 10 - - - -
23/04:30pm 19.4 NNW 10 11 1023.3 - 0.0 - - 10 - - - -
23/04:00pm 19.6 NNW 9 11 1023.4 - 0.0 - - 10 - - - -
23/03:30pm 19.6 N 9 11 1023.6 - 0.0 - Partly cloudy 10 - - - -
23/03:00pm 19.8 N 9 11 1023.8 - 0.0 - - 10 - - - -
23/02:30pm 19.6 NNW 8 10 1024.1 - 0.0 - Partly cloudy 10 - - - -

Other Formats:

Comma delimited format used in spreadsheet applications
http://www.bom.gov.au/fwo/IDT60701/IDT60701.95960.axf

JavaScript Object Notation format (JSON) in row-major order
http://www.bom.gov.au/fwo/IDT60701/IDT60701.95960.json